Belgium, New York
Current Conditions -  °F | °C
As of 3:54 PM on Thursday 18 Dec 2014 (Local Time) from KFZY Reporting Station
Light Snow Light Snow  
Wind Chill: 23°   Ceiling: 1600
Heat Index: 32°   Visibility: 3mi
Dew Point: 27°   Wind: 12mph
Humidity: 82%   Direction: 290°WNW
Pressure: 30.01"   Gusts: NA
Location:  43.1825°N, 76.3664°W
Report Text: KFZY 182054Z AUTO 29010KT 3SM -SN OVC016 00/M03 A3001 RMK AO2 SNB48 SLP167 P0000 60000 T00001028 53008
Loading
Personal Weather Stations






























Interactive Weather Map New forecast layout! Learn more

10-Day Weather Forecast

Advertisements
Track Severe Weather on mobile